Time;durP1;ratioP1;P1;durP2;ratioP2;P2;SDS_P1;SDS_P2;PMS_P1;PMS_P2;Temp;Humidity;BMP_temperature;BMP_pressure;BME280_temperature;BME280_humidity;BME280_pressure;Samples;Min_cycle;Max_cycle;Signal;HPM_P1;HPM_P2
2023/10/27 00:01:25;;;;;;;0.30;0.30;;;;;;;11.09;89.65;95298.84;5051329;28;20080;-75
2023/10/27 00:03:52;;;;;;;0.30;0.30;;;;;;;11.12;89.73;95298.31;5044039;28;20056;-74
2023/10/27 00:06:20;;;;;;;0.20;0.20;;;;;;;11.11;89.72;95291.34;5046617;28;20191;-74
2023/10/27 00:08:48;;;;;;;0.20;0.20;;;;;;;11.14;89.84;95287.38;5050321;28;20176;-73
2023/10/27 00:11:16;;;;;;;0.30;0.30;;;;;;;11.14;89.75;95282.03;5048607;28;20103;-74
2023/10/27 00:13:43;;;;;;;0.25;0.25;;;;;;;11.19;89.78;95271.41;5050726;28;20404;-74
2023/10/27 00:16:12;;;;;;;0.60;0.30;;;;;;;11.13;89.45;95264.41;5050044;28;20044;-73
2023/10/27 00:18:40;;;;;;;0.30;0.30;;;;;;;11.12;89.86;95263.59;5048362;28;20040;-73
2023/10/27 00:21:08;;;;;;;0.30;0.30;;;;;;;11.15;89.62;95251.63;5050527;28;20044;-73
2023/10/27 00:23:36;;;;;;;0.30;0.30;;;;;;;11.14;89.96;95250.00;5051493;28;20492;-74
2023/10/27 00:26:04;;;;;;;0.30;0.30;;;;;;;11.17;89.97;95236.16;5051316;28;20098;-73
2023/10/27 00:28:31;;;;;;;0.28;0.28;;;;;;;11.16;89.71;95235.34;5051680;28;20052;-74
2023/10/27 00:31:00;;;;;;;0.20;0.20;;;;;;;11.15;90.44;95240.94;5052383;28;20040;-75
2023/10/27 00:33:29;;;;;;;0.20;0.20;;;;;;;11.23;90.02;95243.13;5046491;28;20049;-74
2023/10/27 00:35:57;;;;;;;0.25;0.25;;;;;;;11.21;89.90;95242.59;5047642;28;20049;-74
2023/10/27 00:38:24;;;;;;;0.20;0.20;;;;;;;11.25;90.11;95244.50;5050948;28;20043;-73
2023/10/27 00:40:52;;;;;;;0.30;0.30;;;;;;;11.27;89.55;95236.22;5045042;28;20052;-73
2023/10/27 00:43:20;;;;;;;0.30;0.30;;;;;;;11.09;89.74;95232.09;5032959;28;20048;-73
2023/10/27 00:45:50;;;;;;;0.32;0.32;;;;;;;11.07;90.17;95236.88;5041207;28;20052;-73
2023/10/27 00:48:18;;;;;;;0.30;0.30;;;;;;;10.99;90.36;95232.84;5024927;28;20096;-73
2023/10/27 00:50:48;;;;;;;0.47;0.47;;;;;;;11.06;90.46;95229.94;5047696;28;20056;-73
2023/10/27 00:53:19;;;;;;;1.38;0.45;;;;;;;11.09;89.93;95223.28;5042258;28;20048;-73
2023/10/27 00:55:48;;;;;;;0.50;0.20;;;;;;;11.17;89.96;95228.94;5046708;28;20053;-73
2023/10/27 00:58:16;;;;;;;0.30;0.30;;;;;;;11.22;89.78;95236.19;5034464;28;20032;-74
2023/10/27 01:00:44;;;;;;;0.40;0.40;;;;;;;11.15;89.73;95233.75;5048672;28;20510;-74
2023/10/27 01:03:11;;;;;;;0.35;0.35;;;;;;;11.15;90.05;95239.06;5021020;28;20045;-74
2023/10/27 01:05:39;;;;;;;0.30;0.30;;;;;;;11.19;89.83;95245.53;5033370;28;20059;-74
2023/10/27 01:08:08;;;;;;;0.40;0.40;;;;;;;11.18;89.59;95235.91;5049463;28;20514;-74
2023/10/27 01:10:37;;;;;;;0.30;0.30;;;;;;;11.14;89.88;95234.00;5033866;28;20041;-74
2023/10/27 01:13:07;;;;;;;0.22;0.22;;;;;;;11.27;89.18;95244.22;5048064;28;20120;-73
2023/10/27 01:15:34;;;;;;;0.22;0.22;;;;;;;11.18;89.57;95237.75;5044351;28;20103;-73
2023/10/27 01:18:02;;;;;;;0.30;0.30;;;;;;;11.12;89.71;95242.25;5048397;28;20144;-73
2023/10/27 01:20:30;;;;;;;0.35;0.35;;;;;;;11.13;90.08;95237.72;5047484;28;20052;-72
2023/10/27 01:23:02;;;;;;;0.40;0.40;;;;;;;11.14;90.14;95229.47;5029380;28;20057;-73
2023/10/27 01:25:30;;;;;;;0.30;0.30;;;;;;;11.15;90.00;95230.25;5040411;28;20037;-74
2023/10/27 01:27:57;;;;;;;0.32;0.32;;;;;;;11.12;89.43;95234.25;5024570;28;20037;-73
2023/10/27 01:30:27;;;;;;;0.40;0.40;;;;;;;11.14;89.47;95231.31;5026420;28;20114;-73
2023/10/27 01:32:55;;;;;;;0.30;0.30;;;;;;;11.13;89.40;95233.19;5024918;28;20049;-73
2023/10/27 01:35:22;;;;;;;0.30;0.30;;;;;;;11.12;89.57;95226.22;5047634;28;20037;-73
2023/10/27 01:37:50;;;;;;;0.30;0.30;;;;;;;11.13;89.86;95235.03;5044785;28;20060;-74
2023/10/27 01:40:19;;;;;;;0.25;0.25;;;;;;;11.17;89.49;95228.94;5043417;28;20055;-74
2023/10/27 01:42:47;;;;;;;0.30;0.30;;;;;;;11.19;89.59;95232.19;5047748;28;20033;-73
2023/10/27 01:45:15;;;;;;;0.40;0.40;;;;;;;11.21;89.65;95232.69;5032595;28;20038;-73
2023/10/27 01:47:43;;;;;;;0.38;0.35;;;;;;;11.27;89.42;95233.56;5053164;28;20043;-74
2023/10/27 01:50:11;;;;;;;0.30;0.30;;;;;;;11.24;89.35;95236.72;5045806;28;20507;-73
2023/10/27 01:52:39;;;;;;;0.50;0.40;;;;;;;11.20;89.66;95236.47;5047798;28;20645;-74
2023/10/27 01:55:09;;;;;;;0.30;0.30;;;;;;;11.23;89.50;95233.25;5046207;28;20083;-74
2023/10/27 01:57:38;;;;;;;0.40;0.40;;;;;;;11.24;89.31;95232.19;5043844;28;20037;-73
2023/10/27 02:00:09;;;;;;;0.30;0.30;;;;;;;11.27;89.16;95231.69;5043008;28;20091;-74
2023/10/27 02:02:40;;;;;;;0.28;0.28;;;;;;;11.20;88.58;95231.13;5042074;28;20053;-73
2023/10/27 02:05:09;;;;;;;0.30;0.30;;;;;;;11.18;88.92;95227.09;5036506;28;20048;-74
2023/10/27 02:07:37;;;;;;;0.30;0.30;;;;;;;11.15;89.26;95231.06;5053647;28;20156;-73
2023/10/27 02:10:05;;;;;;;0.50;0.50;;;;;;;11.17;88.79;95226.28;5047466;28;20136;-73
2023/10/27 02:12:33;;;;;;;0.38;0.35;;;;;;;11.15;89.07;95228.41;5047254;28;20041;-73
2023/10/27 02:15:02;;;;;;;0.50;0.50;;;;;;;11.17;88.77;95228.94;5043925;28;20045;-73
2023/10/27 02:17:30;;;;;;;0.30;0.30;;;;;;;11.13;88.89;95227.03;5026266;28;20073;-73
2023/10/27 02:19:58;;;;;;;0.30;0.30;;;;;;;11.11;88.94;95219.28;5043631;28;20044;-73
2023/10/27 02:22:26;;;;;;;0.30;0.30;;;;;;;11.10;88.88;95224.91;5032032;28;20522;-72
2023/10/27 02:24:54;;;;;;;0.40;0.40;;;;;;;11.09;88.82;95212.63;5045806;28;20045;-73
2023/10/27 02:27:22;;;;;;;0.40;0.40;;;;;;;11.12;89.01;95217.41;5045245;28;20098;-73
2023/10/27 02:29:50;;;;;;;0.40;0.40;;;;;;;11.12;89.06;95215.56;5030788;28;20533;-73
2023/10/27 02:32:19;;;;;;;0.40;0.40;;;;;;;11.11;88.49;95205.16;5043255;28;20045;-72
2023/10/27 02:34:48;;;;;;;0.30;0.30;;;;;;;11.12;88.42;95206.75;5034528;28;20034;-73
2023/10/27 02:37:16;;;;;;;0.40;0.40;;;;;;;11.14;88.05;95213.44;5041025;28;20045;-72
2023/10/27 02:39:44;;;;;;;0.30;0.30;;;;;;;11.13;87.90;95209.16;5023151;28;20037;-72
2023/10/27 02:42:12;;;;;;;0.30;0.30;;;;;;;11.17;87.56;95210.25;5052691;23;20053;-72
2023/10/27 02:44:39;;;;;;;0.40;0.40;;;;;;;11.12;87.62;95196.88;5035152;28;20407;-73
2023/10/27 02:47:07;;;;;;;0.30;0.30;;;;;;;11.11;87.79;95199.81;5019305;28;20128;-73
2023/10/27 02:49:36;;;;;;;0.30;0.30;;;;;;;11.11;87.64;95192.59;5026749;28;20099;-72
2023/10/27 02:52:04;;;;;;;0.30;0.25;;;;;;;11.10;87.08;95190.19;5039427;28;20041;-72
2023/10/27 02:54:32;;;;;;;0.20;0.20;;;;;;;11.06;87.51;95189.09;5050496;28;20045;-71
2023/10/27 02:57:00;;;;;;;0.40;0.40;;;;;;;11.06;87.06;95187.22;5025835;28;20056;-72
2023/10/27 02:59:28;;;;;;;0.40;0.40;;;;;;;11.01;87.20;95187.19;5046259;28;20491;-72
2023/10/27 03:01:56;;;;;;;0.40;0.40;;;;;;;11.01;87.39;95179.16;5026076;28;20053;-72
2023/10/27 03:04:26;;;;;;;0.45;0.45;;;;;;;11.00;87.42;95185.59;5024688;28;20053;-72
2023/10/27 03:06:55;;;;;;;0.30;0.30;;;;;;;11.00;87.43;95183.72;5037479;28;20462;-73
2023/10/27 03:09:23;;;;;;;0.20;0.20;;;;;;;10.99;87.61;95179.47;5034222;28;20512;-72
2023/10/27 03:11:50;;;;;;;0.40;0.30;;;;;;;10.97;87.64;95178.91;5031039;28;20049;-72
2023/10/27 03:14:18;;;;;;;0.50;0.40;;;;;;;10.98;87.51;95185.84;5041156;28;20480;-72
2023/10/27 03:16:46;;;;;;;0.45;0.45;;;;;;;10.94;87.49;95183.94;5024858;28;20609;-72
2023/10/27 03:19:13;;;;;;;0.57;0.50;;;;;;;10.93;87.81;95182.31;5041284;28;20060;-73
2023/10/27 03:21:42;;;;;;;0.30;0.30;;;;;;;10.89;87.70;95179.38;5038995;28;20068;-73
2023/10/27 03:24:11;;;;;;;0.38;0.38;;;;;;;10.88;88.00;95183.09;5028002;28;20055;-73
2023/10/27 03:26:39;;;;;;;0.40;0.40;;;;;;;10.86;88.00;95184.41;5041579;28;20064;-73
2023/10/27 03:29:07;;;;;;;0.90;0.90;;;;;;;10.85;87.81;95186.28;5042414;28;20495;-73
2023/10/27 03:31:35;;;;;;;0.35;0.35;;;;;;;10.82;87.72;95185.97;5041628;28;20474;-73
2023/10/27 03:34:03;;;;;;;0.43;0.43;;;;;;;10.80;87.46;95180.09;5044606;28;20044;-74
2023/10/27 03:36:31;;;;;;;0.43;0.43;;;;;;;10.78;87.66;95175.03;5025516;28;20619;-72
2023/10/27 03:38:59;;;;;;;0.38;0.38;;;;;;;10.76;87.78;95185.16;5036303;28;20077;-72
2023/10/27 03:41:28;;;;;;;0.40;0.40;;;;;;;10.79;87.51;95173.16;5040956;28;20055;-73
2023/10/27 03:43:56;;;;;;;0.50;0.50;;;;;;;10.74;87.58;95183.78;5044811;28;20111;-74
2023/10/27 03:46:23;;;;;;;0.45;0.40;;;;;;;10.73;87.53;95177.66;5024927;28;20055;-73
2023/10/27 03:48:51;;;;;;;0.40;0.40;;;;;;;10.78;87.71;95172.38;5023398;28;20107;-73
2023/10/27 03:51:19;;;;;;;0.32;0.32;;;;;;;10.75;87.78;95180.06;5022897;28;20162;-74
2023/10/27 03:53:47;;;;;;;0.40;0.40;;;;;;;10.71;87.69;95185.09;5045370;28;20586;-74
2023/10/27 03:56:15;;;;;;;0.57;0.57;;;;;;;10.68;87.34;95174.16;5042242;28;20504;-73
2023/10/27 03:58:44;;;;;;;0.75;0.75;;;;;;;10.69;87.79;95178.44;5026110;28;20474;-72
2023/10/27 04:01:15;;;;;;;;;;;;;;;10.67;87.43;95173.34;5034730;28;20049;-73
2023/10/27 04:03:43;;;;;;;0.40;0.40;;;;;;;10.69;87.37;95183.75;5044145;28;20379;-73
2023/10/27 04:06:11;;;;;;;0.50;0.50;;;;;;;10.68;87.07;95176.81;5038863;28;20049;-74
2023/10/27 04:08:38;;;;;;;0.55;0.50;;;;;;;10.65;87.07;95176.25;5026770;28;20055;-74
2023/10/27 04:11:06;;;;;;;0.30;0.30;;;;;;;10.67;87.16;95170.69;5045003;28;20542;-74
2023/10/27 04:13:34;;;;;;;0.50;0.50;;;;;;;10.68;86.77;95172.28;5043029;28;20045;-74
2023/10/27 04:16:03;;;;;;;0.40;0.40;;;;;;;10.65;86.27;95170.94;5044791;28;20044;-74
2023/10/27 04:18:31;;;;;;;0.40;0.40;;;;;;;10.66;86.19;95169.88;5043052;28;20055;-73
2023/10/27 04:20:59;;;;;;;0.47;0.40;;;;;;;10.64;85.98;95166.66;5045213;28;20099;-73
2023/10/27 04:23:26;;;;;;;0.45;0.30;;;;;;;10.67;86.20;95173.34;5016425;28;20056;-73
2023/10/27 04:25:54;;;;;;;0.50;0.50;;;;;;;10.64;86.34;95174.66;5046381;28;20076;-73
2023/10/27 04:28:22;;;;;;;0.50;0.50;;;;;;;10.67;86.22;95181.34;5035655;28;20056;-74
2023/10/27 04:30:52;;;;;;;0.40;0.40;;;;;;;10.64;86.10;95179.97;5043624;28;20108;-74
2023/10/27 04:33:22;;;;;;;0.40;0.40;;;;;;;10.61;86.20;95183.16;5043564;28;20045;-73
2023/10/27 04:35:50;;;;;;;0.40;0.40;;;;;;;10.60;86.22;95184.22;5041689;28;20228;-73
2023/10/27 04:38:18;;;;;;;0.68;0.68;;;;;;;10.61;85.86;95183.16;5045717;28;20434;-73
2023/10/27 04:40:46;;;;;;;0.40;0.40;;;;;;;10.61;85.84;95174.34;5044145;28;20129;-73
2023/10/27 04:43:13;;;;;;;0.50;0.50;;;;;;;10.64;85.61;95168.50;5044569;28;20048;-73
2023/10/27 04:45:41;;;;;;;0.30;0.30;;;;;;;10.62;85.67;95163.41;5047576;28;20041;-72
2023/10/27 04:48:09;;;;;;;0.40;0.40;;;;;;;10.59;85.73;95157.78;5046070;28;20055;-73
2023/10/27 04:50:38;;;;;;;0.60;0.60;;;;;;;10.61;85.65;95164.47;5040018;28;20036;-74
2023/10/27 04:53:06;;;;;;;0.40;0.40;;;;;;;10.60;85.45;95159.41;5051926;28;20045;-73
2023/10/27 04:55:34;;;;;;;0.73;0.73;;;;;;;10.57;85.25;95158.06;5049674;28;20451;-74
2023/10/27 04:58:01;;;;;;;0.47;0.47;;;;;;;10.55;85.39;95168.19;5041510;28;20037;-73
2023/10/27 05:00:29;;;;;;;0.50;0.50;;;;;;;10.57;85.07;95165.25;5036459;28;20033;-74
2023/10/27 05:02:57;;;;;;;0.30;0.30;;;;;;;10.58;85.20;95156.19;5033272;28;20073;-74
2023/10/27 05:05:24;;;;;;;0.45;0.43;;;;;;;10.62;84.88;95157.28;5042300;28;20094;-74
2023/10/27 05:07:55;;;;;;;0.38;0.38;;;;;;;10.58;85.01;95164.19;5047692;28;20091;-73
2023/10/27 05:10:23;;;;;;;0.30;0.30;;;;;;;10.57;85.08;95166.06;5046790;28;20044;-74
2023/10/27 05:12:51;;;;;;;0.50;0.50;;;;;;;10.54;85.05;95163.91;5041420;28;20076;-73
2023/10/27 05:15:19;;;;;;;0.50;0.50;;;;;;;10.53;85.01;95162.28;5047546;28;20049;-74
2023/10/27 05:17:47;;;;;;;0.38;0.38;;;;;;;10.50;84.73;95157.44;5043642;28;20512;-73
2023/10/27 05:20:15;;;;;;;0.50;0.50;;;;;;;10.51;84.70;95168.94;5049157;28;20524;-73
2023/10/27 05:22:43;;;;;;;0.65;0.65;;;;;;;10.49;85.08;95163.03;5050579;28;20443;-73
2023/10/27 05:25:12;;;;;;;0.55;0.50;;;;;;;10.45;84.37;95159.28;5049395;28;20095;-73
2023/10/27 05:27:40;;;;;;;0.45;0.45;;;;;;;10.44;83.58;95155.81;5049683;28;20049;-73
2023/10/27 05:30:08;;;;;;;0.30;0.30;;;;;;;10.42;83.89;95160.59;5049181;28;20037;-73
2023/10/27 05:32:36;;;;;;;0.30;0.30;;;;;;;10.38;83.33;95156.03;5049012;28;20068;-73
2023/10/27 05:35:04;;;;;;;0.20;0.20;;;;;;;10.33;83.27;95156.78;5037938;28;20052;-73
2023/10/27 05:37:32;;;;;;;0.50;0.50;;;;;;;10.28;83.06;95154.84;5044139;28;20055;-73
2023/10/27 05:40:00;;;;;;;0.40;0.40;;;;;;;10.23;83.34;95157.50;5050980;28;20124;-74
2023/10/27 05:42:30;;;;;;;0.25;0.25;;;;;;;10.14;82.56;95153.66;5051145;28;20077;-74
2023/10/27 05:44:57;;;;;;;0.30;0.30;;;;;;;10.11;83.35;95159.47;5046360;28;20481;-73
2023/10/27 05:47:25;;;;;;;0.35;0.35;;;;;;;10.08;83.76;95170.63;5046063;28;20149;-72
2023/10/27 05:49:54;;;;;;;0.22;0.22;;;;;;;10.06;83.50;95161.31;5043851;28;20114;-73
2023/10/27 05:52:22;;;;;;;0.50;0.50;;;;;;;10.03;83.67;95164.47;5048191;28;20041;-73
2023/10/27 05:54:50;;;;;;;0.38;0.38;;;;;;;10.02;83.74;95171.66;5045918;28;20045;-73
2023/10/27 05:57:18;;;;;;;0.30;0.30;;;;;;;10.02;84.33;95165.50;5050821;28;20128;-73
2023/10/27 05:59:47;;;;;;;0.50;0.50;;;;;;;9.96;84.69;95172.66;5046002;28;20055;-74
2023/10/27 06:02:14;;;;;;;0.20;0.20;;;;;;;9.91;84.83;95169.94;5044676;28;20056;-73
2023/10/27 06:04:43;;;;;;;0.40;0.40;;;;;;;9.86;85.62;95176.00;5041674;28;20044;-72
2023/10/27 06:07:15;;;;;;;0.40;0.40;;;;;;;9.86;85.87;95181.31;5042252;28;20542;-73
2023/10/27 06:09:43;;;;;;;0.85;0.40;;;;;;;9.82;86.05;95174.91;5045626;28;20041;-73
2023/10/27 06:12:11;;;;;;;0.25;0.25;;;;;;;9.75;86.37;95181.47;5047108;28;20476;-73
2023/10/27 06:14:44;;;;;;;0.30;0.30;;;;;;;9.72;86.33;95180.13;5029870;28;20595;-73
2023/10/27 06:17:13;;;;;;;0.30;0.30;;;;;;;9.71;86.69;95186.50;5039920;28;20098;-73
2023/10/27 06:19:41;;;;;;;0.32;0.32;;;;;;;9.65;87.46;95184.84;5046456;28;20069;-73
2023/10/27 06:22:09;;;;;;;0.30;0.30;;;;;;;9.67;87.74;95181.91;5040736;28;20048;-74
2023/10/27 06:24:37;;;;;;;0.50;0.50;;;;;;;9.65;87.51;95190.16;5048532;28;20044;-73
2023/10/27 06:27:05;;;;;;;0.52;0.50;;;;;;;9.66;87.99;95188.28;5045731;28;20136;-75
2023/10/27 06:29:33;;;;;;;0.40;0.40;;;;;;;9.68;88.10;95194.97;5038333;28;20136;-73
2023/10/27 06:32:03;;;;;;;0.40;0.40;;;;;;;9.68;88.27;95200.28;5040622;28;20491;-73
2023/10/27 06:34:32;;;;;;;0.43;0.43;;;;;;;9.70;88.53;95197.38;5046859;28;20309;-73
2023/10/27 06:37:01;;;;;;;0.47;0.47;;;;;;;9.70;88.46;95192.88;5047009;28;20044;-73
2023/10/27 06:39:28;;;;;;;0.30;0.30;;;;;;;9.69;88.17;95193.91;5031887;28;20136;-72
2023/10/27 06:41:56;;;;;;;0.30;0.30;;;;;;;9.69;88.95;95203.75;5038531;28;20143;-72
2023/10/27 06:44:24;;;;;;;0.35;0.35;;;;;;;9.70;89.13;95200.06;5042767;28;20052;-72
2023/10/27 06:46:53;;;;;;;0.40;0.40;;;;;;;9.75;89.01;95202.78;5047037;28;20052;-73
2023/10/27 06:49:21;;;;;;;0.50;0.30;;;;;;;9.74;89.33;95207.31;5040864;28;20045;-73
2023/10/27 06:51:50;;;;;;;0.32;0.32;;;;;;;9.70;88.98;95200.06;5041939;28;20085;-73
2023/10/27 06:54:18;;;;;;;0.30;0.25;;;;;;;9.67;88.88;95196.03;5043697;28;20056;-73
2023/10/27 06:56:45;;;;;;;0.43;0.40;;;;;;;9.66;89.52;95199.72;5042238;28;20051;-73
2023/10/27 06:59:13;;;;;;;0.30;0.30;;;;;;;9.69;89.76;95198.44;5046441;28;20098;-73
2023/10/27 07:01:40;;;;;;;0.60;0.60;;;;;;;9.76;89.24;95191.88;5039420;28;20505;-73
2023/10/27 07:04:11;;;;;;;0.40;0.40;;;;;;;9.82;89.34;95198.06;5044443;28;20534;-73
2023/10/27 07:06:38;;;;;;;0.55;0.40;;;;;;;9.80;89.66;95189.50;5047645;28;20037;-73
2023/10/27 07:09:08;;;;;;;0.40;0.40;;;;;;;9.83;89.63;95194.34;5043552;28;20045;-73
2023/10/27 07:11:36;;;;;;;0.30;0.30;;;;;;;9.82;89.77;95198.88;5049722;28;20040;-74
2023/10/27 07:14:04;;;;;;;0.35;0.35;;;;;;;9.83;90.22;95197.81;5045385;28;20045;-73
2023/10/27 07:16:32;;;;;;;0.50;0.43;;;;;;;9.84;89.90;95202.09;5047201;28;20484;-73
2023/10/27 07:19:00;;;;;;;0.40;0.40;;;;;;;9.88;90.08;95210.38;5040420;28;20053;-73
2023/10/27 07:21:28;;;;;;;0.40;0.40;;;;;;;9.90;90.17;95213.59;5025051;28;20098;-73
2023/10/27 07:23:56;;;;;;;0.40;0.40;;;;;;;9.88;90.18;95205.84;5022652;28;20071;-73
2023/10/27 07:26:25;;;;;;;0.40;0.40;;;;;;;9.89;90.80;95226.13;5029772;28;20080;-73
2023/10/27 07:28:53;;;;;;;0.73;0.60;;;;;;;9.90;90.53;95222.41;5049316;28;20120;-73
2023/10/27 07:31:20;;;;;;;0.38;0.38;;;;;;;9.91;90.96;95226.69;5047922;28;20057;-74
2023/10/27 07:33:48;;;;;;;0.40;0.35;;;;;;;9.90;91.72;95225.06;5045422;28;20040;-73
2023/10/27 07:36:16;;;;;;;0.30;0.30;;;;;;;9.99;91.55;95224.63;5040971;28;20053;-73
2023/10/27 07:38:44;;;;;;;0.40;0.40;;;;;;;9.92;92.13;95222.97;5039623;28;20096;-73
2023/10/27 07:41:12;;;;;;;0.43;0.43;;;;;;;9.99;92.46;95227.28;5048372;28;20041;-73
2023/10/27 07:43:41;;;;;;;0.40;0.40;;;;;;;9.98;92.84;95234.47;5026913;28;20156;-73
2023/10/27 07:46:08;;;;;;;0.60;0.40;;;;;;;10.00;93.29;95239.56;5043732;28;20046;-73
2023/10/27 07:48:37;;;;;;;0.40;0.40;;;;;;;10.00;93.40;95234.22;5043110;28;20053;-73
2023/10/27 07:51:05;;;;;;;0.30;0.30;;;;;;;10.03;93.29;95228.41;5041360;28;20041;-74
2023/10/27 07:53:33;;;;;;;0.30;0.30;;;;;;;10.02;93.53;95234.78;5043517;28;20045;-74
2023/10/27 07:56:01;;;;;;;0.40;0.40;;;;;;;10.03;94.05;95247.06;5035915;28;20046;-73
2023/10/27 07:58:28;;;;;;;0.55;0.50;;;;;;;10.07;93.87;95237.53;5044286;28;20098;-73
2023/10/27 08:00:57;;;;;;;0.40;0.40;;;;;;;10.11;93.87;95234.09;5046726;28;20488;-74
2023/10/27 08:03:25;;;;;;;0.35;0.32;;;;;;;10.15;94.01;95240.56;5041017;28;20040;-73
2023/10/27 08:05:53;;;;;;;0.30;0.30;;;;;;;10.13;94.09;95237.31;5041531;28;20043;-73
2023/10/27 08:08:22;;;;;;;0.40;0.40;;;;;;;10.18;93.88;95239.25;5037196;28;20132;-73
2023/10/27 08:10:50;;;;;;;0.30;0.30;;;;;;;10.17;93.96;95250.97;5022031;28;20052;-73
2023/10/27 08:13:20;;;;;;;0.28;0.28;;;;;;;10.15;93.71;95253.06;5044266;28;20045;-73
2023/10/27 08:15:49;;;;;;;0.17;0.17;;;;;;;10.15;93.51;95250.41;5046755;28;20056;-72
2023/10/27 08:18:18;;;;;;;0.30;0.30;;;;;;;10.16;93.50;95255.50;5031033;28;20068;-73
2023/10/27 08:20:47;;;;;;;0.30;0.30;;;;;;;10.21;93.49;95252.91;5050530;28;20037;-73
2023/10/27 08:23:15;;;;;;;0.13;0.13;;;;;;;10.18;92.42;95263.25;5048535;28;20116;-72
2023/10/27 08:25:43;;;;;;;0.20;0.20;;;;;;;10.21;92.75;95270.75;5045714;28;20048;-72
2023/10/27 08:28:11;;;;;;;0.30;0.30;;;;;;;10.20;93.28;95261.94;5034535;28;20420;-72
2023/10/27 08:30:38;;;;;;;0.40;0.40;;;;;;;10.25;93.22;95261.22;5046589;28;20524;-72
2023/10/27 08:33:06;;;;;;;0.30;0.30;;;;;;;10.28;92.95;95263.34;5050945;28;20033;-73
2023/10/27 08:35:35;;;;;;;0.20;0.20;;;;;;;10.28;92.93;95269.50;5046878;28;20044;-74
2023/10/27 08:38:03;;;;;;;0.30;0.30;;;;;;;10.39;92.99;95272.28;5033812;28;20042;-73
2023/10/27 08:40:31;;;;;;;0.30;0.30;;;;;;;10.29;92.44;95279.09;5042030;28;20488;-73
2023/10/27 08:42:59;;;;;;;0.20;0.20;;;;;;;10.24;92.54;95276.41;5051424;28;20131;-73
2023/10/27 08:45:27;;;;;;;0.35;0.35;;;;;;;10.24;92.25;95283.59;5040385;28;20494;-73
2023/10/27 08:47:55;;;;;;;0.20;0.20;;;;;;;10.21;92.84;95278.75;5050477;28;20139;-73
2023/10/27 08:50:23;;;;;;;0.25;0.25;;;;;;;10.25;93.13;95282.53;5048165;28;20053;-73
2023/10/27 08:52:52;;;;;;;0.20;0.20;;;;;;;10.20;93.30;95285.13;5035217;28;20107;-73
2023/10/27 08:55:20;;;;;;;0.30;0.30;;;;;;;10.16;93.48;95284.81;5048160;28;20069;-73
2023/10/27 08:57:48;;;;;;;0.93;0.40;;;;;;;10.14;94.27;95280.78;5048047;28;20055;-73
2023/10/27 09:00:17;;;;;;;0.30;0.30;;;;;;;10.16;93.85;95278.69;5049288;28;20077;-73
2023/10/27 09:02:45;;;;;;;0.20;0.20;;;;;;;10.20;93.83;95274.47;5051197;28;20044;-73
2023/10/27 09:05:13;;;;;;;0.30;0.30;;;;;;;10.24;93.75;95284.41;5041684;28;20049;-73
2023/10/27 09:07:41;;;;;;;0.25;0.25;;;;;;;10.25;93.33;95283.34;5045197;28;20041;-73
2023/10/27 09:10:11;;;;;;;0.30;0.30;;;;;;;10.28;93.21;95279.34;5048135;28;20048;-74
2023/10/27 09:12:41;;;;;;;0.43;0.35;;;;;;;10.30;93.34;95278.06;5041950;28;20040;-73
2023/10/27 09:15:12;;;;;;;0.30;0.30;;;;;;;10.34;93.10;95277.56;5043429;28;20124;-73
2023/10/27 09:17:51;;;;;;;0.35;0.35;;;;;;;10.33;92.93;95281.28;5046243;28;20045;-73
2023/10/27 09:20:20;;;;;;;0.20;0.20;;;;;;;10.35;92.92;95284.50;5043219;28;20370;-73
2023/10/27 09:22:58;;;;;;;0.30;0.30;;;;;;;10.42;92.68;95293.91;5049694;28;20040;-73
2023/10/27 09:25:32;;;;;;;0.30;0.30;;;;;;;10.49;92.64;95288.38;5043491;28;20040;-72
2023/10/27 09:28:01;;;;;;;0.32;0.30;;;;;;;10.57;92.65;95291.44;5046896;28;20559;-73
2023/10/27 09:30:32;;;;;;;0.30;0.30;;;;;;;10.66;93.05;95297.91;5046602;28;20049;-72
2023/10/27 09:33:13;;;;;;;0.30;0.30;;;;;;;10.69;92.67;95293.94;5045774;28;20551;-73
2023/10/27 09:35:41;;;;;;;0.30;0.30;;;;;;;10.74;92.15;95293.19;5043733;28;20280;-73
2023/10/27 09:38:09;;;;;;;0.30;0.30;;;;;;;10.76;91.65;95289.19;5047342;28;20098;-73
2023/10/27 09:40:38;;;;;;;0.40;0.30;;;;;;;10.75;90.33;95292.13;5039404;28;20084;-72
2023/10/27 09:43:08;;;;;;;0.47;0.47;;;;;;;10.82;90.22;95290.03;5053073;28;20107;-73
2023/10/27 09:45:37;;;;;;;0.40;0.40;;;;;;;10.92;89.11;95287.47;5044583;28;20183;-73
2023/10/27 09:48:07;;;;;;;0.47;0.40;;;;;;;10.88;87.43;95287.19;5047148;28;20044;-73
2023/10/27 09:50:35;;;;;;;0.32;0.32;;;;;;;10.93;88.43;95289.06;5047429;28;20094;-73
2023/10/27 09:53:03;;;;;;;0.40;0.40;;;;;;;10.99;88.60;95290.75;5044859;28;20139;-73
2023/10/27 09:55:32;;;;;;;0.35;0.35;;;;;;;11.01;88.43;95296.63;5046391;28;20049;-73
2023/10/27 09:58:01;;;;;;;0.73;0.73;;;;;;;11.06;88.02;95295.88;5044650;28;20393;-73
2023/10/27 10:00:31;;;;;;;0.35;0.35;;;;;;;11.10;87.10;95294.31;5046525;28;20076;-73
2023/10/27 10:03:01;;;;;;;0.30;0.30;;;;;;;11.09;85.75;95304.19;5046261;28;20041;-73
2023/10/27 10:05:29;;;;;;;0.40;0.40;;;;;;;11.12;86.27;95303.66;5045659;28;20056;-73
2023/10/27 10:08:00;;;;;;;0.70;0.52;;;;;;;11.15;85.37;95297.81;5045327;28;20049;-73
2023/10/27 10:10:30;;;;;;;0.30;0.30;;;;;;;11.19;85.83;95298.94;5049459;28;20047;-73
2023/10/27 10:13:12;;;;;;;0.50;0.50;;;;;;;11.22;84.65;95289.56;5045222;28;20407;-73
2023/10/27 10:15:41;;;;;;;0.40;0.40;;;;;;;11.26;84.52;95301.38;5047186;28;20523;-73
2023/10/27 10:18:54;;;;;;;0.40;0.40;;;;;;;11.29;83.17;95301.66;5049850;28;20096;-73
2023/10/27 10:21:35;;;;;;;0.40;0.40;;;;;;;11.22;82.43;95303.72;5027580;28;20060;-75
2023/10/27 10:24:08;;;;;;;0.60;0.30;;;;;;;11.23;81.94;95304.53;5047304;28;20045;-74
2023/10/27 10:27:04;;;;;;;0.30;0.30;;;;;;;11.24;82.60;95300.81;5043913;28;20041;-72
2023/10/27 10:29:36;;;;;;;0.30;0.30;;;;;;;11.26;82.09;95304.84;5042238;28;20132;-73
2023/10/27 10:32:29;;;;;;;0.43;0.40;;;;;;;11.29;82.85;95298.19;5046437;28;20051;-73
2023/10/27 10:35:23;;;;;;;0.80;0.80;;;;;;;11.37;83.28;95300.38;5047407;28;20435;-73
2023/10/27 10:37:52;;;;;;;0.57;0.50;;;;;;;11.40;81.30;95298.03;5045414;28;20744;-73
2023/10/27 10:40:23;;;;;;;0.40;0.40;;;;;;;11.42;82.08;95296.97;5046248;28;20131;-73
2023/10/27 10:43:20;;;;;;;0.55;0.50;;;;;;;11.44;80.98;95294.81;5044308;28;20485;-73
2023/10/27 10:45:51;;;;;;;0.35;0.35;;;;;;;11.47;79.98;95302.31;5044088;28;20041;-73
2023/10/27 10:48:19;;;;;;;0.50;0.50;;;;;;;11.50;80.87;95294.59;5035928;28;20378;-73
2023/10/27 10:50:47;;;;;;;0.50;0.45;;;;;;;11.43;80.90;95296.69;5042884;28;20408;-73
2023/10/27 10:53:17;;;;;;;0.47;0.47;;;;;;;11.42;80.38;95297.72;5046351;28;20132;-75
2023/10/27 10:55:46;;;;;;;0.40;0.40;;;;;;;11.44;80.55;95292.13;5030519;28;20144;-72
2023/10/27 10:58:21;;;;;;;0.50;0.45;;;;;;;11.50;80.47;95294.59;5042863;28;20500;-74
2023/10/27 11:00:50;;;;;;;0.50;0.43;;;;;;;11.57;80.79;95291.69;5048545;28;20051;-73
2023/10/27 11:03:20;;;;;;;0.30;0.30;;;;;;;11.58;80.85;95277.28;5046044;28;20117;-74
2023/10/27 11:05:48;;;;;;;0.40;0.40;;;;;;;11.62;81.09;95275.72;5043284;28;20665;-73
2023/10/27 11:08:23;;;;;;;0.65;0.65;;;;;;;11.67;81.11;95270.38;5047281;28;20424;-73
2023/10/27 11:10:59;;;;;;;0.43;0.43;;;;;;;11.62;79.23;95267.72;5041271;28;20361;-73
2023/10/27 11:13:27;;;;;;;0.30;0.30;;;;;;;11.55;79.15;95272.44;5044009;28;20033;-73
2023/10/27 11:15:56;;;;;;;0.47;0.47;;;;;;;11.55;79.47;95280.47;5042873;28;20439;-73
2023/10/27 11:18:27;;;;;;;0.68;0.50;;;;;;;11.46;79.54;95276.66;5048376;28;20072;-73
2023/10/27 11:20:55;;;;;;;0.40;0.40;;;;;;;11.44;79.11;95268.91;5027408;28;20064;-73
2023/10/27 11:23:27;;;;;;;0.38;0.35;;;;;;;11.35;79.73;95273.13;5046924;28;20033;-73
2023/10/27 11:26:01;;;;;;;0.43;0.40;;;;;;;11.28;79.46;95270.69;5048840;28;20041;-73
2023/10/27 11:28:29;;;;;;;0.40;0.35;;;;;;;11.20;79.87;95270.38;5046065;28;20041;-73
2023/10/27 11:31:01;;;;;;;0.35;0.35;;;;;;;11.14;81.09;95277.50;5041429;28;20052;-73
2023/10/27 11:33:29;;;;;;;0.75;0.40;;;;;;;11.12;82.15;95281.50;5043832;28;20071;-74
2023/10/27 11:35:58;;;;;;;0.60;0.52;;;;;;;11.00;82.48;95276.34;5041608;28;20049;-72
2023/10/27 11:38:33;;;;;;;0.30;0.30;;;;;;;11.02;82.93;95277.69;5047959;28;20124;-73
2023/10/27 11:41:12;;;;;;;0.35;0.35;;;;;;;10.97;83.09;95279.50;5048623;28;20056;-73
2023/10/27 11:43:40;;;;;;;0.32;0.32;;;;;;;10.95;83.78;95277.09;5050229;28;20037;-73